Time;durP1;ratioP1;P1;durP2;ratioP2;P2;SDS_P1;SDS_P2;PMS_P1;PMS_P2;Temp;Humidity;BMP_temperature;BMP_pressure;BME280_temperature;BME280_humidity;BME280_pressure;Samples;Min_cycle;Max_cycle;Signal;HPM_P1;HPM_P2
2024/03/21 00:01:33;;;;;;;;;;;;;;;12.63;61.03;100111.06;4145487;28;19910;-68
2024/03/21 00:03:34;;;;;;;;;;;;;;;12.75;60.88;100111.69;4145804;28;19928;-66
2024/03/21 00:05:35;;;;;;;;;;;;;;;12.85;60.41;100106.19;4141631;28;19941;-69
2024/03/21 00:07:35;;;;;;;;;;;;;;;12.94;60.09;100102.56;4142534;28;19971;-69
2024/03/21 00:09:38;;;;;;;;;;;;;;;12.66;60.47;100100.03;4144876;28;19913;-70
2024/03/21 00:11:38;;;;;;;;;;;;;;;12.47;61.41;100095.69;4149222;28;19974;-71
2024/03/21 00:13:40;;;;;;;;;;;;;;;12.41;61.62;100097.19;4143849;28;19909;-68
2024/03/21 00:15:41;;;;;;;;;;;;;;;12.45;61.53;100097.72;4132971;28;19910;-67
2024/03/21 00:17:42;;;;;;;;;;;;;;;12.43;61.39;100102.38;4131154;28;19909;-67
2024/03/21 00:19:42;;;;;;;;;;;;;;;12.43;61.46;100097.03;4131167;28;20400;-69
2024/03/21 00:21:43;;;;;;;;;;;;;;;12.46;61.49;100100.22;4132185;28;19909;-70
2024/03/21 00:23:43;;;;;;;;;;;;;;;12.39;61.58;100096.50;4131684;28;19910;-68
2024/03/21 00:25:43;;;;;;;;;;;;;;;12.28;62.01;100094.88;4131208;28;19913;-70
2024/03/21 00:27:45;;;;;;;;;;;;;;;12.22;62.40;100098.19;4130268;28;19960;-69
2024/03/21 00:29:45;;;;;;;;;;;;;;;12.27;62.58;100097.72;4131462;28;19909;-69
2024/03/21 00:31:46;;;;;;;;;;;;;;;12.16;62.84;100099.63;4131457;28;19917;-69
2024/03/21 00:33:49;;;;;;;;;;;;;;;12.25;62.64;100100.56;4131442;28;19909;-68
2024/03/21 00:35:49;;;;;;;;;;;;;;;12.45;62.31;100097.72;4130899;28;19909;-68
2024/03/21 00:37:50;;;;;;;;;;;;;;;12.36;62.00;100099.47;4131047;28;20056;-68
2024/03/21 00:39:50;;;;;;;;;;;;;;;12.42;62.21;100101.53;4131366;28;20046;-66
2024/03/21 00:41:51;;;;;;;;;;;;;;;12.27;62.14;100098.59;4131635;28;19920;-66
2024/03/21 00:43:51;;;;;;;;;;;;;;;12.18;62.71;100094.16;4130316;28;20267;-69
2024/03/21 00:45:52;;;;;;;;;;;;;;;12.13;62.75;100089.25;4131332;28;20008;-67
2024/03/21 00:47:52;;;;;;;;;;;;;;;12.37;62.47;100094.97;4129682;28;19909;-67
2024/03/21 00:49:53;;;;;;;;;;;;;;;12.36;62.53;100095.97;4130846;28;19959;-70
2024/03/21 00:51:53;;;;;;;;;;;;;;;12.46;62.11;100094.03;4133550;28;19956;-66
2024/03/21 00:53:56;;;;;;;;;;;;;;;12.50;61.96;100095.38;4131837;28;19920;-67
2024/03/21 00:55:57;;;;;;;;;;;;;;;12.56;61.60;100096.59;4132484;28;20293;-68
2024/03/21 00:57:57;;;;;;;;;;;;;;;12.49;62.07;100101.75;4131563;28;20012;-67
2024/03/21 00:59:58;;;;;;;;;;;;;;;12.44;62.22;100098.72;4131273;28;19980;-69
2024/03/21 01:01:58;;;;;;;;;;;;;;;12.41;63.03;100104.38;4131062;28;19921;-67
2024/03/21 01:03:59;;;;;;;;;;;;;;;12.47;62.36;100093.00;4130807;28;20013;-67
2024/03/21 01:05:59;;;;;;;;;;;;;;;12.53;62.49;100092.41;4130782;28;19937;-66
2024/03/21 01:08:00;;;;;;;;;;;;;;;12.50;62.66;100092.72;4130732;28;20009;-67
2024/03/21 01:10:00;;;;;;;;;;;;;;;12.31;62.90;100091.91;4130876;28;20004;-67
2024/03/21 01:12:01;;;;;;;;;;;;;;;12.09;63.77;100093.22;4130961;28;20345;-69
2024/03/21 01:14:01;;;;;;;;;;;;;;;12.27;63.47;100093.22;4129514;28;20025;-69
2024/03/21 01:16:02;;;;;;;;;;;;;;;12.36;62.97;100098.66;4130408;28;20525;-69
2024/03/21 01:18:06;;;;;;;;;;;;;;;12.30;63.22;100087.53;4130856;28;19925;-69
2024/03/21 01:20:08;;;;;;;;;;;;;;;12.24;63.29;100089.97;4132327;28;19917;-67
2024/03/21 01:22:08;;;;;;;;;;;;;;;12.05;63.98;100088.31;4131466;28;19909;-68
2024/03/21 01:24:08;;;;;;;;;;;;;;;12.09;63.63;100084.34;4130855;28;20465;-68
2024/03/21 01:26:09;;;;;;;;;;;;;;;12.24;63.37;100087.28;4130517;28;19910;-68
2024/03/21 01:28:10;;;;;;;;;;;;;;;12.35;62.91;100083.56;4129057;28;19944;-67
2024/03/21 01:30:10;;;;;;;;;;;;;;;12.27;62.86;100082.50;4130639;28;20379;-67
2024/03/21 01:32:11;;;;;;;;;;;;;;;12.22;63.18;100079.44;4130561;28;19910;-68
2024/03/21 01:34:12;;;;;;;;;;;;;;;12.16;63.44;100080.88;4130357;28;19910;-69
2024/03/21 01:36:12;;;;;;;;;;;;;;;12.10;63.08;100080.66;4130147;28;19910;-68
2024/03/21 01:38:16;;;;;;;;;;;;;;;11.91;63.72;100087.81;4129828;28;19924;-66
2024/03/21 01:40:16;;;;;;;;;;;;;;;11.96;63.82;100082.00;4130314;28;19909;-66
2024/03/21 01:42:18;;;;;;;;;;;;;;;12.04;63.68;100087.50;4130070;28;20016;-69
2024/03/21 01:44:21;;;;;;;;;;;;;;;12.18;62.97;100080.75;4130429;28;19945;-67
2024/03/21 01:46:23;;;;;;;;;;;;;;;12.12;63.36;100089.38;4129817;28;19932;-69
2024/03/21 01:48:24;;;;;;;;;;;;;;;12.08;63.26;100080.81;4130401;28;19913;-68
2024/03/21 01:50:25;;;;;;;;;;;;;;;12.24;62.99;100093.53;4129499;28;20278;-65
2024/03/21 01:52:26;;;;;;;;;;;;;;;12.12;63.10;100084.03;4130407;28;19910;-69
2024/03/21 01:54:27;;;;;;;;;;;;;;;12.15;63.21;100089.09;4130503;28;19916;-67
2024/03/21 01:56:27;;;;;;;;;;;;;;;12.07;63.21;100087.16;4128725;28;19910;-67
2024/03/21 01:58:28;;;;;;;;;;;;;;;12.07;62.91;100091.69;4129822;28;20398;-67
2024/03/21 02:00:28;;;;;;;;;;;;;;;11.94;63.66;100092.06;4132718;28;20481;-68
2024/03/21 02:02:29;;;;;;;;;;;;;;;11.88;63.73;100100.69;4138655;28;20385;-67
2024/03/21 02:04:30;;;;;;;;;;;;;;;11.88;63.92;100101.53;4135567;28;19969;-67
2024/03/21 02:06:34;;;;;;;;;;;;;;;11.88;63.89;100098.00;4129908;28;19909;-69
2024/03/21 02:08:36;;;;;;;;;;;;;;;11.82;64.29;100096.75;4129931;28;19914;-68
2024/03/21 02:10:36;;;;;;;;;;;;;;;11.79;63.90;100089.88;4130308;28;19918;-68
2024/03/21 02:12:48;;;;;;;;;;;;;;;11.86;63.68;100093.63;4129851;28;19917;-68
2024/03/21 02:14:50;;;;;;;;;;;;;;;11.92;63.61;100100.22;4130212;28;20004;-66
2024/03/21 02:16:50;;;;;;;;;;;;;;;11.95;63.39;100107.97;4129460;28;19910;-69
2024/03/21 02:18:53;;;;;;;;;;;;;;;11.93;63.32;100106.44;4128389;28;20681;-67
2024/03/21 02:20:53;;;;;;;;;;;;;;;11.99;62.86;100096.00;4129957;28;19949;-68
2024/03/21 02:22:53;;;;;;;;;;;;;;;12.01;63.39;100103.88;4129616;28;19940;-69
2024/03/21 02:24:54;;;;;;;;;;;;;;;11.98;63.21;100098.81;4131564;28;19922;-66
2024/03/21 02:26:55;;;;;;;;;;;;;;;12.00;62.94;100107.53;4135164;28;19979;-67
2024/03/21 02:28:55;;;;;;;;;;;;;;;11.90;63.80;100112.94;4134197;28;20055;-68
2024/03/21 02:30:56;;;;;;;;;;;;;;;11.80;63.71;100113.00;4136074;28;19925;-69
2024/03/21 02:32:56;;;;;;;;;;;;;;;11.82;63.82;100115.50;4135526;28;19959;-68
2024/03/21 02:34:56;;;;;;;;;;;;;;;11.80;63.85;100107.63;4135651;28;19913;-67
2024/03/21 02:36:57;;;;;;;;;;;;;;;11.88;63.62;100114.06;4135072;28;19949;-69
2024/03/21 02:38:57;;;;;;;;;;;;;;;11.88;63.16;100109.56;4134097;28;19953;-67
2024/03/21 02:40:57;;;;;;;;;;;;;;;11.90;63.49;100112.94;4134933;28;19914;-66
2024/03/21 02:42:58;;;;;;;;;;;;;;;11.96;63.26;100112.31;4135332;28;19909;-69
2024/03/21 02:44:58;;;;;;;;;;;;;;;11.88;63.52;100114.94;4135493;28;20569;-68
2024/03/21 02:46:59;;;;;;;;;;;;;;;11.96;63.13;100109.66;4134945;28;19909;-67
2024/03/21 02:48:59;;;;;;;;;;;;;;;11.98;63.06;100113.06;4135054;28;20025;-68
2024/03/21 02:50:59;;;;;;;;;;;;;;;12.11;62.59;100117.16;4134692;28;19910;-67
2024/03/21 02:53:00;;;;;;;;;;;;;;;12.09;62.56;100121.88;4134936;28;19909;-69
2024/03/21 02:55:01;;;;;;;;;;;;;;;12.08;62.47;100114.81;4135423;28;19910;-69
2024/03/21 02:57:02;;;;;;;;;;;;;;;11.95;63.03;100117.84;4135262;28;19953;-68
2024/03/21 02:59:04;;;;;;;;;;;;;;;11.98;62.94;100122.91;4135179;28;19945;-69
2024/03/21 03:01:05;;;;;;;;;;;;;;;12.05;62.97;100125.84;4134987;28;20379;-70
2024/03/21 03:03:07;;;;;;;;;;;;;;;11.88;63.38;100128.31;4134871;28;19918;-69
2024/03/21 03:05:10;;;;;;;;;;;;;;;11.88;63.56;100127.47;4134970;28;19938;-69
2024/03/21 03:07:10;;;;;;;;;;;;;;;11.79;63.78;100126.56;4134541;28;19909;-68
2024/03/21 03:09:10;;;;;;;;;;;;;;;11.71;64.34;100135.31;4134928;28;19914;-68
2024/03/21 03:11:11;;;;;;;;;;;;;;;11.77;64.00;100144.59;4135123;28;19967;-69
2024/03/21 03:13:11;;;;;;;;;;;;;;;11.78;63.92;100139.06;4135306;28;19913;-68
2024/03/21 03:15:12;;;;;;;;;;;;;;;11.80;64.00;100141.63;4135135;28;20387;-67
2024/03/21 03:17:12;;;;;;;;;;;;;;;11.79;63.87;100142.63;4134886;28;19910;-68
2024/03/21 03:19:12;;;;;;;;;;;;;;;11.68;63.97;100147.19;4135245;28;20049;-69
2024/03/21 03:21:13;;;;;;;;;;;;;;;11.68;64.03;100146.31;4135728;28;19961;-69
2024/03/21 03:23:13;;;;;;;;;;;;;;;11.65;64.29;100146.66;4133735;28;20457;-69
2024/03/21 03:25:14;;;;;;;;;;;;;;;11.76;63.98;100137.56;4134182;28;19921;-67
2024/03/21 03:27:14;;;;;;;;;;;;;;;11.90;63.60;100134.38;4134922;28;20028;-69
2024/03/21 03:29:14;;;;;;;;;;;;;;;11.82;63.66;100127.09;4135144;28;20289;-70
2024/03/21 03:31:15;;;;;;;;;;;;;;;11.84;63.54;100134.97;4134937;28;20004;-68
2024/03/21 03:35:40;;;;;;;;;;;;;;;11.71;64.42;100138.00;4135468;28;19935;-68
2024/03/21 03:37:40;;;;;;;;;;;;;;;11.79;64.33;100142.63;4130746;28;20593;-67
2024/03/21 03:39:41;;;;;;;;;;;;;;;11.70;64.31;100139.84;4132066;28;19918;-70
2024/03/21 03:41:41;;;;;;;;;;;;;;;11.64;64.86;100142.28;4143068;28;19944;-71
2024/03/21 03:43:43;;;;;;;;;;;;;;;11.66;64.74;100143.81;4151341;28;20320;-70
2024/03/21 03:45:43;;;;;;;;;;;;;;;11.66;64.87;100149.16;4132807;28;19913;-67
2024/03/21 03:47:43;;;;;;;;;;;;;;;11.59;65.34;100141.88;4131881;28;19971;-67
2024/03/21 03:49:43;;;;;;;;;;;;;;;11.66;65.05;100137.63;4132546;28;19917;-68
2024/03/21 03:51:44;;;;;;;;;;;;;;;11.64;65.35;100148.47;4131552;28;19914;-69
2024/03/21 03:53:44;;;;;;;;;;;;;;;11.68;64.94;100154.34;4131828;28;19948;-70
2024/03/21 03:55:45;;;;;;;;;;;;;;;11.61;65.18;100139.88;4131890;28;19964;-72
2024/03/21 03:57:45;;;;;;;;;;;;;;;11.60;65.29;100148.91;4130416;28;19909;-69
2024/03/21 03:59:45;;;;;;;;;;;;;;;11.72;64.87;100150.41;4131462;28;20373;-70
2024/03/21 04:01:47;;;;;;;;;;;;;;;11.74;64.84;100147.56;4131956;28;19931;-70
2024/03/21 04:03:48;;;;;;;;;;;;;;;11.71;65.10;100151.38;4131578;28;20354;-68
2024/03/21 04:06:17;;;;;;;;;;;;;;;11.81;64.58;100152.19;4130210;28;19910;-68
2024/03/21 04:08:17;;;;;;;;;;;;;;;11.79;64.85;100147.97;4126616;28;19910;-69
2024/03/21 04:10:18;;;;;;;;;;;;;;;11.73;64.52;100143.19;4130433;28;19987;-67
2024/03/21 04:12:18;;;;;;;;;;;;;;;11.95;64.23;100147.31;4132086;28;19921;-69
2024/03/21 04:14:19;;;;;;;;;;;;;;;11.98;64.09;100153.25;4132687;28;19917;-68
2024/03/21 04:16:20;;;;;;;;;;;;;;;11.96;63.96;100144.47;4132077;28;20321;-69
2024/03/21 04:18:21;;;;;;;;;;;;;;;12.08;63.58;100153.16;4132753;28;19963;-70
2024/03/21 04:20:21;;;;;;;;;;;;;;;12.10;63.48;100139.59;4132833;28;19972;-68
2024/03/21 04:22:22;;;;;;;;;;;;;;;12.05;63.50;100149.94;4131751;28;19914;-70
2024/03/21 04:24:23;;;;;;;;;;;;;;;11.87;63.76;100153.41;4131484;28;19960;-69
2024/03/21 04:26:23;;;;;;;;;;;;;;;11.68;64.27;100157.91;4131235;28;19916;-69
2024/03/21 04:28:23;;;;;;;;;;;;;;;11.66;64.78;100153.69;4130093;28;19941;-69
2024/03/21 04:30:24;;;;;;;;;;;;;;;11.69;64.52;100156.91;4132511;28;20588;-67
2024/03/21 04:32:25;;;;;;;;;;;;;;;11.71;64.41;100165.63;4131431;28;19913;-69
2024/03/21 04:34:25;;;;;;;;;;;;;;;11.71;64.62;100162.94;4133373;28;19920;-69
2024/03/21 04:36:26;;;;;;;;;;;;;;;11.76;64.59;100167.00;4137797;28;19914;-69
2024/03/21 04:38:26;;;;;;;;;;;;;;;11.80;64.37;100171.09;4136877;28;20764;-67
2024/03/21 04:40:26;;;;;;;;;;;;;;;11.65;64.61;100158.19;4131754;28;19913;-69
2024/03/21 04:42:27;;;;;;;;;;;;;;;11.65;64.85;100163.53;4131907;28;19972;-68
2024/03/21 04:44:27;;;;;;;;;;;;;;;11.72;64.68;100169.16;4131841;28;19921;-67
2024/03/21 04:46:27;;;;;;;;;;;;;;;11.69;64.87;100170.31;4131176;28;19917;-69
2024/03/21 04:48:28;;;;;;;;;;;;;;;11.75;64.54;100176.91;4129996;28;20484;-69
2024/03/21 04:50:28;;;;;;;;;;;;;;;11.71;64.47;100173.66;4131565;28;20390;-69
2024/03/21 04:52:28;;;;;;;;;;;;;;;11.71;64.87;100168.28;4130460;28;19956;-69
2024/03/21 04:54:29;;;;;;;;;;;;;;;11.71;64.85;100162.94;4130744;28;20445;-66
2024/03/21 04:56:29;;;;;;;;;;;;;;;11.75;64.52;100158.16;4130942;28;20014;-66
2024/03/21 04:58:29;;;;;;;;;;;;;;;11.76;64.11;100167.00;4129028;28;19914;-70
2024/03/21 05:00:30;;;;;;;;;;;;;;;11.59;64.66;100174.84;4131158;28;19914;-66
2024/03/21 05:02:31;;;;;;;;;;;;;;;11.41;65.35;100184.66;4131194;28;20275;-68
2024/03/21 05:04:31;;;;;;;;;;;;;;;11.35;65.51;100184.25;4130516;28;19952;-67
2024/03/21 05:06:32;;;;;;;;;;;;;;;11.23;65.96;100180.91;4130705;28;19921;-69
2024/03/21 05:08:32;;;;;;;;;;;;;;;11.20;66.21;100180.34;4130624;28;19910;-67
2024/03/21 05:10:33;;;;;;;;;;;;;;;11.28;66.05;100177.78;4130905;28;19957;-69
2024/03/21 05:12:33;;;;;;;;;;;;;;;11.44;65.49;100181.66;4131006;28;20393;-68
2024/03/21 05:14:34;;;;;;;;;;;;;;;11.39;65.43;100190.13;4131054;28;19910;-70
2024/03/21 05:16:36;;;;;;;;;;;;;;;11.38;65.57;100183.13;4131074;28;20294;-67
2024/03/21 05:18:36;;;;;;;;;;;;;;;11.56;65.12;100180.50;4144503;28;19909;-67
2024/03/21 05:20:38;;;;;;;;;;;;;;;11.63;64.71;100180.75;4131335;28;20638;-67
2024/03/21 05:22:38;;;;;;;;;;;;;;;11.39;65.57;100191.00;4130877;28;19955;-71
2024/03/21 05:24:38;;;;;;;;;;;;;;;11.47;65.36;100186.75;4133740;28;19949;-70
2024/03/21 05:26:38;;;;;;;;;;;;;;;11.57;65.34;100176.84;4141877;28;20241;-70
2024/03/21 05:28:39;;;;;;;;;;;;;;;11.58;64.94;100173.16;4141018;28;19932;-71
2024/03/21 05:30:39;;;;;;;;;;;;;;;11.63;64.91;100183.44;4143318;28;19910;-71
2024/03/21 05:32:40;;;;;;;;;;;;;;;11.66;64.69;100180.47;4141998;28;19916;-69
2024/03/21 05:34:41;;;;;;;;;;;;;;;11.71;64.70;100178.16;4142522;28;19914;-67
2024/03/21 05:36:41;;;;;;;;;;;;;;;11.76;64.64;100177.72;4144397;28;19940;-68
2024/03/21 05:38:45;;;;;;;;;;;;;;;11.79;64.53;100172.09;4146437;28;19928;-69
2024/03/21 05:40:45;;;;;;;;;;;;;;;11.84;63.94;100175.13;4134106;28;19914;-68
2024/03/21 05:42:48;;;;;;;;;;;;;;;11.72;64.07;100179.88;4131108;28;19910;-68
2024/03/21 05:44:48;;;;;;;;;;;;;;;11.40;65.01;100189.16;4129185;28;19914;-68
2024/03/21 05:46:49;;;;;;;;;;;;;;;11.26;65.53;100186.97;4130251;28;20401;-68
2024/03/21 05:48:50;;;;;;;;;;;;;;;11.23;65.66;100188.94;4129104;28;19940;-69
2024/03/21 05:50:50;;;;;;;;;;;;;;;11.19;66.28;100192.88;4130759;28;19916;-70
2024/03/21 05:52:50;;;;;;;;;;;;;;;11.45;65.68;100184.22;4130567;28;19953;-68
2024/03/21 05:54:51;;;;;;;;;;;;;;;11.17;66.15;100186.00;4130030;28;20005;-69
2024/03/21 05:56:52;;;;;;;;;;;;;;;11.21;66.01;100190.06;4129835;28;19909;-67
2024/03/21 05:58:52;;;;;;;;;;;;;;;11.19;66.36;100192.03;4129828;28;19914;-68
2024/03/21 06:00:57;;;;;;;;;;;;;;;11.17;66.36;100183.31;4128215;28;19909;-68
2024/03/21 06:02:58;;;;;;;;;;;;;;;11.27;66.12;100184.13;4130013;28;19909;-67
2024/03/21 06:04:58;;;;;;;;;;;;;;;11.25;66.12;100186.09;4129702;28;19910;-68
2024/03/21 06:06:59;;;;;;;;;;;;;;;11.41;65.83;100198.03;4129329;28;19924;-71
2024/03/21 06:09:00;;;;;;;;;;;;;;;11.38;65.91;100197.34;4128640;28;19920;-70
2024/03/21 06:11:00;;;;;;;;;;;;;;;11.29;66.01;100205.41;4129377;28;20358;-70
2024/03/21 06:13:01;;;;;;;;;;;;;;;11.20;66.34;100199.91;4129088;28;19917;-67
2024/03/21 06:15:01;;;;;;;;;;;;;;;11.11;66.82;100219.50;4129464;28;19914;-69
2024/03/21 06:17:02;;;;;;;;;;;;;;;11.03;67.33;100217.59;4128727;28;19968;-66
2024/03/21 06:19:03;;;;;;;;;;;;;;;10.95;67.20;100208.56;4127633;28;19997;-68
2024/03/21 06:21:04;;;;;;;;;;;;;;;11.06;67.09;100216.44;4128727;28;20037;-66
2024/03/21 06:23:04;;;;;;;;;;;;;;;11.07;67.14;100223.47;4128887;28;19913;-68
2024/03/21 06:25:04;;;;;;;;;;;;;;;11.04;66.71;100223.75;4130183;28;19924;-68
2024/03/21 06:27:05;;;;;;;;;;;;;;;11.01;66.96;100232.94;4145002;28;20496;-66
2024/03/21 06:29:05;;;;;;;;;;;;;;;10.94;67.11;100229.13;4130234;28;20380;-69
2024/03/21 06:31:07;;;;;;;;;;;;;;;10.81;66.99;100234.78;4130450;28;20479;-71
2024/03/21 06:33:08;;;;;;;;;;;;;;;10.88;67.31;100232.38;4130121;28;19964;-69
2024/03/21 06:35:10;;;;;;;;;;;;;;;11.07;66.79;100240.38;4130069;28;19913;-69
2024/03/21 06:37:13;;;;;;;;;;;;;;;11.07;66.60;100255.59;4129146;28;19910;-70
2024/03/21 06:39:13;;;;;;;;;;;;;;;11.08;66.76;100257.28;4126959;28;20286;-68
2024/03/21 06:41:14;;;;;;;;;;;;;;;11.12;66.81;100247.13;4144294;28;20000;-67
2024/03/21 06:43:14;;;;;;;;;;;;;;;11.26;66.14;100249.34;4128536;28;20011;-67
2024/03/21 06:45:15;;;;;;;;;;;;;;;11.15;66.80;100253.03;4129700;28;19913;-67
2024/03/21 06:47:15;;;;;;;;;;;;;;;11.22;66.71;100256.00;4127958;28;20335;-67
2024/03/21 06:49:16;;;;;;;;;;;;;;;11.51;65.59;100249.72;4129046;28;20378;-70
2024/03/21 06:51:16;;;;;;;;;;;;;;;11.28;66.37;100252.72;4129747;28;19917;-68
2024/03/21 06:53:17;;;;;;;;;;;;;;;11.17;66.74;100263.59;4130522;28;19913;-69
2024/03/21 06:55:22;;;;;;;;;;;;;;;11.28;66.70;100259.94;4149638;28;19909;-67
2024/03/21 06:57:25;;;;;;;;;;;;;;;11.32;66.27;100258.63;4139153;28;19909;-68
2024/03/21 06:59:25;;;;;;;;;;;;;;;11.28;66.53;100263.44;4129815;28;19924;-68
2024/03/21 07:01:26;;;;;;;;;;;;;;;11.35;66.66;100259.19;4130023;28;19949;-67
2024/03/21 07:03:26;;;;;;;;;;;;;;;11.36;66.35;100266.22;4130864;28;20247;-66
2024/03/21 07:05:27;;;;;;;;;;;;;;;11.28;66.66;100263.44;4130454;28;19910;-67
2024/03/21 07:07:27;;;;;;;;;;;;;;;11.34;66.83;100262.84;4128787;28;19910;-68
2024/03/21 07:09:27;;;;;;;;;;;;;;;11.41;66.34;100262.28;4129706;28;20361;-67
2024/03/21 07:11:28;;;;;;;;;;;;;;;11.55;66.23;100253.78;4130616;28;19910;-68
2024/03/21 07:13:28;;;;;;;;;;;;;;;11.59;66.10;100262.34;4132566;28;20000;-68
2024/03/21 07:15:29;;;;;;;;;;;;;;;11.58;66.20;100266.88;4131561;28;20008;-67
2024/03/21 07:17:29;;;;;;;;;;;;;;;11.64;66.08;100268.97;4132143;28;19909;-67
2024/03/21 07:19:33;;;;;;;;;;;;;;;11.69;66.14;100266.72;4131103;28;19945;-68
2024/03/21 07:21:33;;;;;;;;;;;;;;;11.87;65.55;100276.63;4128293;28;19936;-68
2024/03/21 07:23:35;;;;;;;;;;;;;;;12.22;64.58;100277.75;4129745;28;19913;-68
2024/03/21 07:25:35;;;;;;;;;;;;;;;12.20;64.34;100269.00;4131921;28;20423;-67
2024/03/21 07:27:36;;;;;;;;;;;;;;;12.14;64.63;100277.66;4133920;28;19909;-68
2024/03/21 07:29:36;;;;;;;;;;;;;;;12.19;64.54;100271.84;4148703;28;19925;-69
2024/03/21 07:31:37;;;;;;;;;;;;;;;12.47;63.83;100268.16;4133826;28;20024;-69
2024/03/21 07:33:37;;;;;;;;;;;;;;;12.61;63.75;100282.03;4133494;28;19913;-69
2024/03/21 07:35:38;;;;;;;;;;;;;;;12.72;62.67;100280.97;4131346;28;19913;-67
2024/03/21 07:37:38;;;;;;;;;;;;;;;12.87;62.44;100271.38;4129518;28;19953;-70
2024/03/21 07:39:38;;;;;;;;;;;;;;;13.02;62.41;100271.66;4134452;28;20045;-70
2024/03/21 07:41:39;;;;;;;;;;;;;;;12.97;62.28;100273.13;4135584;28;19916;-69
2024/03/21 07:43:40;;;;;;;;;;;;;;;13.14;61.89;100272.25;4137325;28;19909;-68
2024/03/21 07:45:40;;;;;;;;;;;;;;;13.07;62.27;100284.63;4136018;28;19913;-66
2024/03/21 07:47:41;;;;;;;;;;;;;;;13.16;62.03;100286.38;4132829;28;20060;-67
2024/03/21 07:49:41;;;;;;;;;;;;;;;13.23;61.63;100276.69;4132703;28;19910;-67
2024/03/21 07:51:41;;;;;;;;;;;;;;;13.17;61.97;100277.31;4132475;28;19916;-67
2024/03/21 07:53:42;;;;;;;;;;;;;;;13.39;61.44;100284.03;4131093;28;20378;-68
2024/03/21 07:55:43;;;;;;;;;;;;;;;13.50;61.78;100285.66;4130943;28;19909;-66
2024/03/21 07:57:43;;;;;;;;;;;;;;;13.88;60.46;100286.19;4131907;28;19909;-66
2024/03/21 07:59:43;;;;;;;;;;;;;;;14.00;60.16;100283.19;4132368;28;19920;-70
2024/03/21 08:01:44;;;;;;;;;;;;;;;14.14;59.75;100289.81;4132688;28;20649;-67
2024/03/21 08:03:45;;;;;;;;;;;;;;;14.15;59.64;100292.34;4132200;28;19913;-68
2024/03/21 08:05:45;;;;;;;;;;;;;;;14.13;59.77;100291.66;4132399;28;20364;-68
2024/03/21 08:07:46;;;;;;;;;;;;;;;14.22;59.65;100299.75;4131201;28;19910;-68
2024/03/21 08:09:46;;;;;;;;;;;;;;;14.24;59.55;100295.06;4131588;28;19956;-67
2024/03/21 08:11:47;;;;;;;;;;;;;;;14.42;59.36;100305.69;4132096;28;19916;-68
2024/03/21 08:13:47;;;;;;;;;;;;;;;14.54;58.59;100290.94;4132565;28;19909;-68
2024/03/21 08:15:48;;;;;;;;;;;;;;;14.44;59.04;100301.88;4131272;28;19909;-70
2024/03/21 08:17:48;;;;;;;;;;;;;;;14.61;58.73;100304.59;4131963;28;19924;-67
2024/03/21 08:19:50;;;;;;;;;;;;;;;14.75;58.52;100312.03;4131591;28;20024;-66
2024/03/21 08:21:51;;;;;;;;;;;;;;;14.84;58.08;100312.03;4131772;28;19910;-66
2024/03/21 08:23:51;;;;;;;;;;;;;;;15.03;57.65;100311.72;4131319;28;19918;-66
2024/03/21 08:25:52;;;;;;;;;;;;;;;15.18;57.24;100316.47;4131548;28;20021;-67
2024/03/21 08:27:52;;;;;;;;;;;;;;;15.01;58.11;100327.22;4131807;28;20381;-66
2024/03/21 08:29:53;;;;;;;;;;;;;;;14.78;58.88;100319.78;4131850;28;20366;-66
2024/03/21 08:31:54;;;;;;;;;;;;;;;15.19;57.97;100323.53;4131664;28;19976;-69
2024/03/21 08:33:54;;;;;;;;;;;;;;;15.39;57.61;100322.19;4131934;28;19909;-68
2024/03/21 08:35:56;;;;;;;;;;;;;;;15.47;57.27;100312.41;4131515;28;19922;-68
2024/03/21 08:37:57;;;;;;;;;;;;;;;15.49;57.65;100310.38;4131134;28;19956;-67
2024/03/21 08:40:00;;;;;;;;;;;;;;;15.62;57.89;100304.47;4132173;28;19909;-66
2024/03/21 08:42:01;;;;;;;;;;;;;;;15.46;58.71;100316.94;4132507;28;19910;-67
2024/03/21 08:44:01;;;;;;;;;;;;;;;15.57;58.88;100315.75;4133088;28;19916;-67
2024/03/21 08:46:01;;;;;;;;;;;;;;;15.51;59.96;100314.59;4131318;28;19914;-66
2024/03/21 08:48:02;;;;;;;;;;;;;;;16.17;58.29;100314.44;4131596;28;19964;-68
2024/03/21 08:50:03;;;;;;;;;;;;;;;16.19;58.39;100320.50;4132104;28;20363;-69
2024/03/21 08:52:03;;;;;;;;;;;;;;;16.59;57.64;100317.75;4130458;28;20040;-68
2024/03/21 08:54:04;;;;;;;;;;;;;;;16.14;58.50;100312.06;4131682;28;19910;-66
2024/03/21 08:56:04;;;;;;;;;;;;;;;16.55;58.02;100312.91;4131298;28;19917;-66
2024/03/21 08:58:05;;;;;;;;;;;;;;;16.62;57.42;100301.22;4131323;28;20260;-68
2024/03/21 09:00:05;;;;;;;;;;;;;;;16.88;56.99;100294.63;4131133;28;20000;-68
2024/03/21 09:02:06;;;;;;;;;;;;;;;17.14;56.19;100298.84;4129768;28;19909;-68
2024/03/21 09:04:06;;;;;;;;;;;;;;;17.85;54.39;100295.78;4131337;28;20402;-67
2024/03/21 09:06:07;;;;;;;;;;;;;;;17.78;54.65;100284.03;4131202;28;19918;-71
2024/03/21 09:08:08;;;;;;;;;;;;;;;18.49;52.55;100264.56;4130306;28;20386;-69
2024/03/21 09:10:09;;;;;;;;;;;;;;;18.63;52.58;100275.50;4130949;28;19918;-67
2024/03/21 09:12:09;;;;;;;;;;;;;;;18.25;52.61;100290.09;4131718;28;20476;-67
2024/03/21 09:14:09;;;;;;;;;;;;;;;18.01;53.50;100297.47;4131786;28;19909;-68
2024/03/21 09:16:10;;;;;;;;;;;;;;;18.67;51.69;100296.59;4131650;28;19944;-68
2024/03/21 09:18:10;;;;;;;;;;;;;;;18.57;51.33;100298.75;4129738;28;20584;-68
2024/03/21 09:20:11;;;;;;;;;;;;;;;18.18;52.20;100308.94;4130247;28;19913;-69
2024/03/21 09:22:11;;;;;;;;;;;;;;;18.53;51.32;100311.84;4130914;28;19910;-67
2024/03/21 09:24:11;;;;;;;;;;;;;;;18.34;51.56;100320.56;4131063;28;20519;-67
2024/03/21 09:26:12;;;;;;;;;;;;;;;18.39;50.89;100324.38;4129575;28;19910;-68
2024/03/21 09:28:13;;;;;;;;;;;;;;;18.31;51.15;100321.78;4128362;28;19992;-68
2024/03/21 09:30:13;;;;;;;;;;;;;;;17.80;52.17;100330.66;4131429;28;19910;-67
2024/03/21 09:32:13;;;;;;;;;;;;;;;17.71;52.23;100326.34;4131421;28;19932;-68
2024/03/21 09:34:14;;;;;;;;;;;;;;;17.57;52.63;100336.94;4131529;28;19914;-68
2024/03/21 09:36:14;;;;;;;;;;;;;;;17.63;52.81;100340.78;4130333;28;20025;-69
2024/03/21 09:38:14;;;;;;;;;;;;;;;18.21;51.73;100327.50;4130592;28;19917;-67
2024/03/21 09:40:17;;;;;;;;;;;;;;;18.44;50.87;100323.81;4130864;28;20415;-67
2024/03/21 09:42:20;;;;;;;;;;;;;;;18.09;51.31;100329.00;4130771;28;20389;-67
2024/03/21 09:44:21;;;;;;;;;;;;;;;17.93;51.62;100336.25;4131648;28;19914;-69
2024/03/21 09:46:21;;;;;;;;;;;;;;;18.18;51.02;100346.81;4131359;28;19916;-69
2024/03/21 09:48:22;;;;;;;;;;;;;;;17.75;51.79;100346.59;4130630;28;20263;-68
2024/03/21 09:50:23;;;;;;;;;;;;;;;17.60;52.33;100346.56;4129582;28;20358;-69
2024/03/21 09:52:24;;;;;;;;;;;;;;;17.97;51.81;100346.72;4131659;28;19997;-68
2024/03/21 09:54:24;;;;;;;;;;;;;;;18.14;51.40;100347.38;4130440;28;19948;-69
2024/03/21 09:56:24;;;;;;;;;;;;;;;18.36;50.92;100351.00;4131911;28;19913;-69
2024/03/21 09:58:25;;;;;;;;;;;;;;;18.33;50.78;100346.81;4130850;28;19975;-69
2024/03/21 10:00:25;;;;;;;;;;;;;;;18.61;50.11;100342.56;4130239;28;19914;-67
2024/03/21 10:02:26;;;;;;;;;;;;;;;17.96;51.55;100347.69;4130973;28;19933;-67
2024/03/21 10:04:26;;;;;;;;;;;;;;;17.73;51.82;100362.16;4130575;28;20354;-69
2024/03/21 10:06:27;;;;;;;;;;;;;;;17.60;52.10;100346.56;4129205;28;20000;-66
2024/03/21 10:08:27;;;;;;;;;;;;;;;18.27;50.71;100352.13;4129794;28;19921;-68
2024/03/21 10:10:27;;;;;;;;;;;;;;;18.10;50.86;100344.22;4130132;28;20257;-66
2024/03/21 10:12:28;;;;;;;;;;;;;;;18.92;48.97;100334.16;4130608;28;19949;-69
2024/03/21 10:14:28;;;;;;;;;;;;;;;19.10;48.71;100331.00;4130651;28;20459;-68
2024/03/21 10:16:29;;;;;;;;;;;;;;;19.22;48.47;100333.19;4130434;28;19914;-68
2024/03/21 10:18:29;;;;;;;;;;;;;;;20.03;46.78;100329.22;4133742;28;19917;-69
2024/03/21 10:20:29;;;;;;;;;;;;;;;20.00;46.47;100333.19;4135191;28;20418;-69
2024/03/21 10:22:30;;;;;;;;;;;;;;;20.22;46.27;100327.63;4133685;28;20029;-67